Aérodrome :







RETROUVEZ-NOUS SUR...

 
LOGIN :

S'inscrire | Disclaimer

   EN    FR    IT 

 









Légende :    VFR   VFR Marginal   IFR   IFR Intensif   IFR Très Intensif
Visi : 
Plafond : 
>= 8 km
>= 3000ft
5 à 8 km
1000 à 3000 ft
1500m à 5 km
500 à 1000 ft
800 à 1500m
200 à 500 ft
< 800m
< 200 ft
Symboles :   Orages  Brouillard  Fortes neiges  Fortes précipitations  Vent > 20 kt






- Altitude de l'aérodrome : 550 ft
- Code IATA : YOY


CYOY - C J.H.L.(Joe) Lecomte) Heliport

DERNIER METAR :
  • 150158Z AUTO 08006KT 020V120 1 3/4SM DZ OVC009 OVC020 04/03 A2901

METARs EXPIRÉS :
  • 150141Z AUTO 05005G16KT 010V090 2 1/2SM DZ OVC012 04/03 A2903
  • 150136Z AUTO 04005G17KT 010V100 5SM -DZ OVC014 04/03 A2904
  • 150108Z AUTO 06007G16KT 030V110 1 3/4SM DZ OVC009 04/03 A2909
  • 150053Z AUTO 07010KT 040V120 2SM -DZ OVC012 04/03 A2910
  • 150027Z AUTO 07011G20KT 040V130 7SM OVC012 04/03 A2914
  • 150000Z AUTO 09010G24KT 050V110 1 3/4SM -DZ OVC012 04/03 A2916 RMK SLP881
  • 142348Z AUTO 09011G20KT 050V120 2 1/2SM OVC014 04/03 A2918
  • 142300Z AUTO 09013G24KT 050V110 6SM OVC012 05/03 A2921 RMK SLP899

Prévision TAF périmée.



MET'MAP, la Météo Aéronautique d'un coup d'oeil ! - Copyright ORBIFLY Décembre 2007 - Disclaimer

ORBIFLY MET'MAP TEAM :

Programmation & Développement : Alexandra Zaïnal
Sur une idée originale de : Baudouin d'Aumeries
Assistance à la programmation : Marc-Olivier Méhu
Soutien technique & logistique : Manuel Goepfert

Contact : metmap@orbifly.com




SOURCES & CREDITS :

   NOAA